Time;durP1;ratioP1;P1;durP2;ratioP2;P2;SDS_P1;SDS_P2;PMS_P1;PMS_P2;Temp;Humidity;BMP_temperature;BMP_pressure;BME280_temperature;BME280_humidity;BME280_pressure;Samples;Min_cycle;Max_cycle;Signal;HPM_P1;HPM_P2
2021/04/19 00:00:25;;;;;;;10.70;6.40;;;;;;;9.51;57.55;97446.53;5075092;28;20318;-76
2021/04/19 00:02:50;;;;;;;9.73;6.55;;;;;;;9.44;57.87;97438.09;5070983;28;20032;-76
2021/04/19 00:05:17;;;;;;;11.07;7.25;;;;;;;9.38;57.96;97443.19;5089424;28;20375;-76
2021/04/19 00:07:43;;;;;;;11.75;7.60;;;;;;;9.47;58.10;97437.63;5097570;28;20027;-76
2021/04/19 00:10:09;;;;;;;11.45;7.20;;;;;;;9.48;57.79;97432.22;5109762;28;20032;-76
2021/04/19 00:12:35;;;;;;;14.05;8.13;;;;;;;9.51;58.28;97429.16;5094116;28;20031;-76
2021/04/19 00:15:01;;;;;;;15.00;9.13;;;;;;;9.49;58.63;97433.81;5094256;27;20035;-76
2021/04/19 00:17:27;;;;;;;13.27;8.45;;;;;;;9.54;58.36;97427.91;5070533;27;20118;-76
2021/04/19 00:19:52;;;;;;;19.92;10.88;;;;;;;9.58;58.66;97431.63;5095302;27;20098;-76
2021/04/19 00:22:18;;;;;;;15.02;8.98;;;;;;;9.66;58.70;97430.47;5120227;27;20031;-76
2021/04/19 00:24:43;;;;;;;16.23;9.93;;;;;;;9.69;58.67;97428.19;5088646;27;20367;-76
2021/04/19 00:27:08;;;;;;;18.55;11.80;;;;;;;9.69;58.81;97430.00;5112148;27;20035;-76
2021/04/19 00:29:34;;;;;;;19.90;13.02;;;;;;;9.72;59.00;97435.53;5094798;27;20042;-76
2021/04/19 00:31:59;;;;;;;17.30;10.88;;;;;;;9.76;58.97;97433.25;5072586;28;20035;-76
2021/04/19 00:34:25;;;;;;;17.42;10.55;;;;;;;9.85;58.60;97431.88;5089764;28;20134;-76
2021/04/19 00:36:51;;;;;;;19.27;11.45;;;;;;;10.02;59.08;97421.47;5108274;27;20035;-76
2021/04/19 00:39:16;;;;;;;18.40;11.18;;;;;;;10.08;58.39;97430.19;5096930;27;20035;-76
2021/04/19 00:41:42;;;;;;;19.15;11.45;;;;;;;9.94;59.78;97427.84;5094365;27;20054;-77
2021/04/19 00:44:07;;;;;;;19.98;12.75;;;;;;;9.92;60.15;97427.31;5097331;27;20398;-77
2021/04/19 00:46:33;;;;;;;20.55;12.82;;;;;;;9.91;59.88;97428.31;5072331;27;20030;-76
2021/04/19 00:48:58;;;;;;;19.40;12.23;;;;;;;10.08;60.54;97420.56;5081497;27;20035;-76
2021/04/19 00:51:24;;;;;;;21.65;13.15;;;;;;;10.15;60.87;97417.03;5108414;27;20031;-76
2021/04/19 00:53:51;;;;;;;24.73;15.73;;;;;;;10.17;60.92;97414.97;5064056;28;20036;-76
2021/04/19 00:56:16;;;;;;;26.88;15.13;;;;;;;10.34;60.49;97405.38;5085933;27;20027;-76
2021/04/19 00:58:44;;;;;;;27.17;16.75;;;;;;;10.35;60.53;97411.38;5065733;28;20478;-76
2021/04/19 01:01:09;;;;;;;27.15;17.60;;;;;;;10.39;60.54;97410.66;5053552;28;20028;-76
2021/04/19 01:03:35;;;;;;;26.63;15.82;;;;;;;10.35;60.52;97400.94;5083279;27;20054;-76
2021/04/19 01:06:01;;;;;;;22.77;14.38;;;;;;;10.37;60.14;97398.94;5088561;28;20031;-77
2021/04/19 01:08:26;;;;;;;24.55;14.48;;;;;;;10.38;60.66;97403.88;5093812;27;20031;-77
2021/04/19 01:10:52;;;;;;;19.77;13.82;;;;;;;10.31;60.67;97398.00;5093997;27;20366;-76
2021/04/19 01:13:17;;;;;;;22.17;13.07;;;;;;;10.34;60.45;97400.16;5074567;28;20043;-77
2021/04/19 01:15:43;;;;;;;19.02;11.95;;;;;;;10.29;60.69;97402.66;5067334;28;20077;-76
2021/04/19 01:18:08;;;;;;;22.02;13.32;;;;;;;10.37;60.75;97399.72;5111613;27;20027;-77
2021/04/19 01:20:40;;;;;;;26.92;15.98;;;;;;;10.20;60.77;97402.28;5090770;28;20118;-76
2021/04/19 01:23:07;;;;;;;25.05;14.93;;;;;;;10.42;60.65;97399.78;5070002;27;20473;-77
2021/04/19 01:25:33;;;;;;;27.10;16.15;;;;;;;10.52;60.55;97393.94;5114476;27;20050;-77
2021/04/19 01:27:58;;;;;;;28.13;16.63;;;;;;;10.49;60.64;97404.84;5110698;28;20410;-77
2021/04/19 01:30:31;;;;;;;28.15;17.20;;;;;;;10.27;61.24;97397.69;5060046;28;20031;-76
2021/04/19 01:32:56;;;;;;;27.20;16.83;;;;;;;10.49;61.12;97394.41;5110738;28;20102;-77
2021/04/19 01:35:22;;;;;;;28.80;17.83;;;;;;;10.47;61.27;97393.88;5132104;27;20106;-77
2021/04/19 01:37:47;;;;;;;30.52;17.88;;;;;;;10.53;61.13;97387.69;5094441;27;20039;-77
2021/04/19 01:40:14;;;;;;;28.52;18.23;;;;;;;10.45;61.09;97388.91;5114233;27;20474;-76
2021/04/19 01:42:46;;;;;;;26.20;16.00;;;;;;;10.33;61.39;97392.59;5090616;27;20035;-77
2021/04/19 01:45:14;;;;;;;20.80;13.95;;;;;;;10.43;60.81;97397.97;5080497;27;20027;-77
2021/04/19 01:47:40;;;;;;;19.40;12.05;;;;;;;10.37;60.39;97394.50;5091590;28;20696;-77
2021/04/19 01:50:09;;;;;;;21.73;13.00;;;;;;;10.30;60.60;97386.81;5067187;27;20415;-77
2021/04/19 01:52:35;;;;;;;26.02;16.27;;;;;;;10.28;61.80;97383.66;5076749;28;20031;-76
2021/04/19 01:55:06;;;;;;;23.85;14.77;;;;;;;10.29;61.46;97385.22;5096546;27;20025;-76
2021/04/19 01:57:32;;;;;;;25.55;16.80;;;;;;;10.35;61.86;97383.53;5082953;28;20390;-76
2021/04/19 01:59:57;;;;;;;26.77;16.35;;;;;;;10.37;61.69;97378.88;5114063;27;20039;-77
2021/04/19 02:02:37;;;;;;;27.15;17.10;;;;;;;10.04;62.36;97387.44;5079821;27;20378;-76
2021/04/19 02:05:15;;;;;;;28.65;16.88;;;;;;;10.08;62.04;97385.94;5110749;28;20054;-76
2021/04/19 02:08:11;;;;;;;26.08;16.48;;;;;;;10.04;62.38;97390.84;5112417;27;20035;-77
2021/04/19 02:10:47;;;;;;;29.77;18.58;;;;;;;10.11;62.68;97383.66;5122007;27;20029;-77
2021/04/19 02:13:31;;;;;;;32.78;19.13;;;;;;;10.35;61.94;97377.53;5110165;28;20367;-77
2021/04/19 02:16:13;;;;;;;30.02;18.63;;;;;;;10.10;62.19;97381.28;5109412;28;20034;-76
2021/04/19 02:19:12;;;;;;;32.65;19.25;;;;;;;9.99;62.78;97389.94;5092112;27;20059;-77
2021/04/19 02:21:41;;;;;;;28.92;17.90;;;;;;;10.07;62.48;97387.75;5131596;27;20062;-76
2021/04/19 02:24:11;;;;;;;30.77;17.65;;;;;;;10.12;62.43;97385.22;5112449;27;20030;-77
2021/04/19 02:26:41;;;;;;;27.90;17.02;;;;;;;10.23;62.36;97386.19;5107290;27;20022;-77
2021/04/19 02:29:13;;;;;;;34.45;20.48;;;;;;;10.10;62.60;97370.88;5113365;27;20065;-77
2021/04/19 02:32:00;;;;;;;34.53;20.58;;;;;;;10.05;62.92;97387.19;5079469;27;20023;-76
2021/04/19 02:34:29;;;;;;;34.92;19.60;;;;;;;10.16;62.33;97384.75;5095966;27;20563;-77
2021/04/19 02:36:56;;;;;;;30.58;19.25;;;;;;;10.29;62.57;97381.84;5095911;27;20268;-77
2021/04/19 02:39:23;;;;;;;31.58;19.38;;;;;;;10.34;62.25;97384.56;5105886;27;20038;-77
2021/04/19 02:41:51;;;;;;;29.95;19.10;;;;;;;10.29;62.20;97392.25;5089176;27;20126;-77
2021/04/19 02:44:17;;;;;;;27.38;17.67;;;;;;;10.33;62.11;97385.56;5106214;27;20422;-76
2021/04/19 02:46:43;;;;;;;27.30;17.08;;;;;;;10.34;62.18;97374.16;5099371;27;20027;-76
2021/04/19 02:49:09;;;;;;;28.92;18.40;;;;;;;10.37;62.24;97375.50;5095838;27;20089;-76
2021/04/19 02:51:35;;;;;;;30.60;19.23;;;;;;;10.37;62.16;97370.28;5108341;27;20228;-76
2021/04/19 02:54:01;;;;;;;32.92;19.63;;;;;;;10.32;62.28;97373.59;5095728;27;20027;-76
2021/04/19 02:56:28;;;;;;;31.90;20.48;;;;;;;10.29;62.34;97380.03;5112262;27;20027;-76
2021/04/19 02:58:56;;;;;;;33.92;21.23;;;;;;;10.19;62.32;97379.88;5102950;27;20031;-76
2021/04/19 03:01:23;;;;;;;35.28;19.65;;;;;;;10.27;62.61;97376.09;5112607;27;20027;-77
2021/04/19 03:03:49;;;;;;;30.10;18.17;;;;;;;10.30;62.44;97376.41;5095706;27;20031;-76
2021/04/19 03:06:16;;;;;;;26.27;17.42;;;;;;;10.31;62.22;97371.97;5112268;27;20027;-77
2021/04/19 03:08:47;;;;;;;28.92;18.10;;;;;;;10.09;62.13;97369.28;5087828;28;20039;-77
2021/04/19 03:11:20;;;;;;;28.35;16.70;;;;;;;10.07;62.12;97363.53;5107399;27;20031;-77
2021/04/19 03:13:45;;;;;;;30.38;19.20;;;;;;;10.27;61.94;97376.09;5094668;27;20067;-76
2021/04/19 03:16:11;;;;;;;30.67;17.17;;;;;;;10.22;62.08;97363.78;5093916;28;20051;-77
2021/04/19 03:18:37;;;;;;;25.75;15.98;;;;;;;10.26;62.34;97367.50;5078586;27;20031;-77
2021/04/19 03:21:11;;;;;;;26.30;16.42;;;;;;;10.04;62.46;97367.41;5112557;27;20039;-76
2021/04/19 03:23:45;;;;;;;23.20;14.95;;;;;;;9.99;62.75;97363.94;5095638;28;20059;-77
2021/04/19 03:26:12;;;;;;;27.33;17.42;;;;;;;10.18;62.15;97360.09;5111924;28;20028;-76
2021/04/19 03:28:39;;;;;;;31.45;19.02;;;;;;;10.21;62.47;97357.03;5106527;27;20058;-76
2021/04/19 03:31:07;;;;;;;35.65;21.40;;;;;;;10.15;62.42;97357.19;5094945;27;20039;-76
2021/04/19 03:33:33;;;;;;;33.25;21.13;;;;;;;10.19;62.51;97363.47;5095145;27;20118;-76
2021/04/19 03:36:00;;;;;;;30.50;18.58;;;;;;;10.24;62.24;97355.75;5077044;28;20084;-76
2021/04/19 03:38:26;;;;;;;36.75;21.67;;;;;;;10.27;62.46;97366.47;5093908;28;20035;-76
2021/04/19 03:40:51;;;;;;;33.28;19.60;;;;;;;10.25;62.35;97368.53;5104060;28;20195;-76
2021/04/19 03:43:19;;;;;;;35.63;20.70;;;;;;;10.17;62.85;97363.72;5090322;28;20069;-76
2021/04/19 03:45:47;;;;;;;34.70;21.23;;;;;;;10.12;62.64;97361.81;5078298;28;20042;-77
2021/04/19 03:48:14;;;;;;;31.02;20.00;;;;;;;10.20;62.62;97360.63;5088146;28;20031;-76
2021/04/19 03:50:45;;;;;;;29.60;19.60;;;;;;;10.08;62.66;97368.50;5089997;28;20434;-76
2021/04/19 03:53:11;;;;;;;32.22;19.75;;;;;;;10.20;62.76;97357.25;5095187;28;20043;-76
2021/04/19 03:55:39;;;;;;;34.63;20.13;;;;;;;10.13;62.41;97360.00;5094778;28;20039;-76
2021/04/19 03:58:05;;;;;;;32.85;19.10;;;;;;;10.21;62.76;97351.00;5101922;28;20031;-77
2021/04/19 04:00:31;;;;;;;34.58;19.17;;;;;;;10.21;62.39;97354.41;5111937;28;20035;-76
2021/04/19 04:02:57;;;;;;;31.27;19.23;;;;;;;10.27;62.74;97350.06;5093105;28;20024;-76
2021/04/19 04:05:22;;;;;;;31.65;18.73;;;;;;;10.26;62.71;97343.28;5109596;28;20085;-77
2021/04/19 04:07:49;;;;;;;31.85;19.02;;;;;;;10.26;62.59;97351.91;5109037;28;20383;-76
2021/04/19 04:10:16;;;;;;;35.15;21.40;;;;;;;10.30;62.48;97341.78;5088963;28;20181;-77
2021/04/19 04:12:42;;;;;;;32.67;21.30;;;;;;;10.31;62.75;97358.97;5094906;28;20027;-76
2021/04/19 04:15:08;;;;;;;35.95;22.33;;;;;;;10.26;62.68;97344.09;5107885;28;20690;-76
2021/04/19 04:17:33;;;;;;;33.53;19.95;;;;;;;10.30;62.29;97347.00;5130175;28;20033;-77
2021/04/19 04:19:59;;;;;;;33.03;19.25;;;;;;;10.33;62.61;97350.97;5093876;28;20050;-77
2021/04/19 04:22:24;;;;;;;35.40;21.73;;;;;;;10.23;62.78;97346.34;5111922;28;20180;-77
2021/04/19 04:24:50;;;;;;;33.50;20.52;;;;;;;10.24;62.76;97359.13;5130020;28;20703;-76
2021/04/19 04:27:16;;;;;;;30.75;19.40;;;;;;;10.31;62.46;97358.97;5108268;28;20497;-76
2021/04/19 04:29:42;;;;;;;30.85;19.55;;;;;;;10.33;62.47;97353.56;5109525;28;20026;-76
2021/04/19 04:32:08;;;;;;;34.17;20.48;;;;;;;10.35;62.01;97356.72;5071114;28;20043;-77
2021/04/19 04:34:34;;;;;;;29.40;19.38;;;;;;;10.39;62.36;97358.59;5074565;28;20031;-76
2021/04/19 04:37:00;;;;;;;30.70;19.88;;;;;;;10.33;62.21;97354.34;5071558;28;20026;-77
2021/04/19 04:39:25;;;;;;;32.65;20.58;;;;;;;10.24;62.83;97353.91;5082780;28;20066;-76
2021/04/19 04:41:51;;;;;;;39.65;22.27;;;;;;;10.31;62.58;97351.16;5092034;28;20090;-76
2021/04/19 04:44:25;;;;;;;40.03;22.83;;;;;;;9.98;63.10;97357.16;5066480;28;20037;-77
2021/04/19 04:47:36;;;;;;;34.55;21.92;;;;;;;9.88;63.92;97358.56;5078189;27;20117;-76
2021/04/19 04:50:01;;;;;;;35.53;22.52;;;;;;;10.32;62.67;97359.81;5055487;27;20563;-77
2021/04/19 04:52:31;;;;;;;35.95;21.02;;;;;;;10.20;62.87;97350.22;5111681;27;20035;-77
2021/04/19 04:54:57;;;;;;;36.72;22.05;;;;;;;10.26;62.75;97351.91;5114710;27;20418;-77
2021/04/19 04:57:24;;;;;;;33.97;20.70;;;;;;;10.35;62.39;97356.72;5110111;27;20114;-76
2021/04/19 04:59:51;;;;;;;34.47;21.88;;;;;;;10.30;62.44;97355.59;5114074;27;20035;-76
2021/04/19 05:02:24;;;;;;;34.88;20.50;;;;;;;10.12;61.99;97361.81;5106730;27;20100;-76
2021/04/19 05:04:50;;;;;;;33.72;18.92;;;;;;;10.27;62.62;97361.25;5110778;28;20390;-76
2021/04/19 05:07:16;;;;;;;33.97;19.52;;;;;;;10.24;62.50;97353.91;5096683;27;20035;-77
2021/04/19 05:09:45;;;;;;;33.35;19.00;;;;;;;10.10;62.61;97353.44;5113504;27;20113;-77
2021/04/19 05:12:11;;;;;;;32.50;20.77;;;;;;;10.19;62.61;97359.03;5111369;27;20031;-77
2021/04/19 05:14:38;;;;;;;34.05;21.00;;;;;;;10.20;62.61;97365.06;5095680;27;20711;-76
2021/04/19 05:17:04;;;;;;;32.72;20.73;;;;;;;10.23;62.75;97364.56;5096419;27;20035;-77
2021/04/19 05:19:29;;;;;;;34.28;19.75;;;;;;;10.30;62.62;97368.59;5093880;27;20038;-77
2021/04/19 05:21:55;;;;;;;35.33;21.48;;;;;;;10.34;62.69;97366.34;5095726;27;20417;-77
2021/04/19 05:24:20;;;;;;;40.47;22.27;;;;;;;10.38;62.64;97371.84;5112222;27;20039;-77
2021/04/19 05:26:45;;;;;;;34.92;21.27;;;;;;;10.35;62.66;97369.72;5084664;27;20036;-76
2021/04/19 05:29:11;;;;;;;38.70;21.80;;;;;;;10.42;62.46;97375.56;5112347;27;20027;-77
2021/04/19 05:31:36;;;;;;;36.53;21.45;;;;;;;10.43;62.54;97377.91;5094933;27;20031;-76
2021/04/19 05:34:01;;;;;;;38.33;22.77;;;;;;;10.48;62.89;97372.00;5104519;28;20035;-76
2021/04/19 05:36:28;;;;;;;41.17;22.75;;;;;;;10.43;62.73;97377.13;5097154;27;20052;-77
2021/04/19 05:38:54;;;;;;;39.22;24.17;;;;;;;10.49;62.81;97374.38;5097370;27;20055;-76
2021/04/19 05:41:21;;;;;;;42.53;25.42;;;;;;;10.47;62.80;97380.84;5091371;27;20486;-77
2021/04/19 05:43:48;;;;;;;43.42;25.90;;;;;;;10.54;62.64;97380.66;5114423;27;20485;-77
2021/04/19 05:46:14;;;;;;;43.38;25.67;;;;;;;10.53;62.61;97373.91;5096770;27;20016;-76
2021/04/19 05:48:41;;;;;;;50.72;30.15;;;;;;;10.53;62.57;97366.88;5113561;27;20032;-76
2021/04/19 05:51:27;;;;;;;51.70;30.40;;;;;;;10.31;63.53;97377.19;5079994;27;20034;-76
2021/04/19 05:53:53;;;;;;;;;;;;;;;10.09;64.31;97384.91;5097317;27;20031;-76
2021/04/19 05:56:28;;;;;;;50.83;28.92;;;;;;;10.36;63.25;97384.31;5113247;27;19956;-77
2021/04/19 05:58:58;;;;;;;51.15;28.88;;;;;;;10.50;62.79;97385.56;5099135;27;20075;-76
2021/04/19 06:01:24;;;;;;;48.10;29.50;;;;;;;10.73;62.56;97394.22;5112959;27;20114;-76
2021/04/19 06:04:28;;;;;;;44.78;28.35;;;;;;;10.49;63.08;97392.59;5073080;27;20032;-76
2021/04/19 06:07:06;;;;;;;55.20;31.52;;;;;;;10.61;62.60;97400.31;5131148;27;20114;-76
2021/04/19 06:09:57;;;;;;;48.88;29.23;;;;;;;10.70;62.70;97394.72;5110442;27;20379;-76
2021/04/19 06:12:27;;;;;;;54.15;30.45;;;;;;;10.82;62.67;97390.19;5063035;28;20039;-76
2021/04/19 06:14:52;;;;;;;45.50;27.42;;;;;;;11.02;62.68;97387.06;5109925;28;20049;-76
2021/04/19 06:17:20;;;;;;;41.65;25.63;;;;;;;10.98;62.78;97394.56;5109710;28;20032;-76
2021/04/19 06:19:46;;;;;;;48.05;28.20;;;;;;;11.11;62.27;97395.25;5111784;27;20381;-76
2021/04/19 06:22:16;;;;;;;45.53;26.88;;;;;;;10.98;61.98;97391.94;5093190;28;20028;-76
2021/04/19 06:24:49;;;;;;;47.33;26.77;;;;;;;10.96;62.36;97388.03;5079616;27;20027;-76
2021/04/19 06:27:22;;;;;;;47.63;26.92;;;;;;;11.02;61.95;97397.50;5109646;28;20027;-76
2021/04/19 06:29:47;;;;;;;45.75;27.42;;;;;;;11.19;61.99;97393.00;5113200;27;20110;-77
2021/04/19 06:32:14;;;;;;;45.17;25.88;;;;;;;11.19;61.93;97394.81;5112651;27;20417;-77
2021/04/19 06:34:39;;;;;;;48.63;29.52;;;;;;;11.25;61.87;97399.06;5096052;27;20084;-76
2021/04/19 06:37:06;;;;;;;42.17;24.98;;;;;;;11.27;61.73;97399.59;5093488;27;20691;-76
2021/04/19 06:39:31;;;;;;;44.17;25.90;;;;;;;11.40;61.31;97394.03;5107175;27;20023;-77
2021/04/19 06:41:57;;;;;;;44.95;26.27;;;;;;;11.42;61.08;97399.78;5125368;27;20072;-76
2021/04/19 06:44:22;;;;;;;40.10;23.90;;;;;;;11.55;61.14;97398.63;5113201;27;20027;-77
2021/04/19 06:46:48;;;;;;;37.67;22.80;;;;;;;11.63;60.74;97392.16;5088012;27;20067;-77
2021/04/19 06:49:13;;;;;;;36.13;23.27;;;;;;;11.77;60.71;97395.19;5095459;27;20035;-76
2021/04/19 06:51:39;;;;;;;41.67;25.00;;;;;;;11.82;60.90;97400.44;5105426;28;20379;-77
2021/04/19 06:54:05;;;;;;;40.95;25.52;;;;;;;11.92;61.03;97399.78;5065346;27;20128;-76
2021/04/19 06:56:38;;;;;;;39.60;24.50;;;;;;;11.84;60.64;97393.19;5094694;27;20072;-77
2021/04/19 06:59:05;;;;;;;38.22;22.98;;;;;;;12.10;60.03;97396.06;5092829;27;20037;-76
2021/04/19 07:01:31;;;;;;;40.30;23.65;;;;;;;12.18;60.36;97401.59;5096097;27;20458;-76
2021/04/19 07:04:08;;;;;;;39.60;24.20;;;;;;;11.92;60.74;97394.56;5078412;27;20172;-76
2021/04/19 07:06:35;;;;;;;39.45;22.70;;;;;;;12.41;59.71;97397.06;5078463;27;20633;-76
2021/04/19 07:09:36;;;;;;;32.30;21.23;;;;;;;12.21;59.85;97394.31;5093980;27;20039;-76
2021/04/19 07:12:21;;;;;;;34.72;21.27;;;;;;;12.36;59.17;97405.66;4991892;28;20102;-76
2021/04/19 07:14:52;;;;;;;30.30;19.50;;;;;;;12.62;58.13;97387.53;5010624;28;20037;-77
2021/04/19 07:17:17;;;;;;;32.33;20.77;;;;;;;12.97;57.73;97394.03;5009860;28;20034;-77
2021/04/19 07:19:43;;;;;;;31.85;19.30;;;;;;;12.98;57.55;97392.97;4990882;28;20048;-76
2021/04/19 07:22:10;;;;;;;30.05;19.88;;;;;;;13.12;56.71;97390.66;5028909;28;20697;-76
2021/04/19 07:24:35;;;;;;;33.75;22.38;;;;;;;12.95;58.58;97396.06;5010402;28;20041;-76
2021/04/19 07:27:03;;;;;;;32.10;21.02;;;;;;;12.86;58.88;97397.59;4993741;28;20516;-77
2021/04/19 07:29:29;;;;;;;36.00;21.15;;;;;;;12.91;58.57;97395.81;5008267;28;20036;-77
2021/04/19 07:31:56;;;;;;;32.10;20.63;;;;;;;12.83;58.57;97391.03;4994013;28;20042;-76
2021/04/19 07:34:24;;;;;;;35.10;21.55;;;;;;;13.15;59.30;97389.38;5001161;28;20109;-76
2021/04/19 07:37:01;;;;;;;36.25;21.50;;;;;;;13.01;59.48;97387.22;4990661;28;20025;-77
2021/04/19 07:39:28;;;;;;;34.65;21.25;;;;;;;13.17;58.11;97389.91;5006764;28;20057;-76
2021/04/19 07:41:57;;;;;;;53.30;31.80;;;;;;;13.24;57.83;97393.84;4986768;28;20065;-76
2021/04/19 07:44:33;;;;;;;33.80;21.80;;;;;;;13.22;56.75;97385.47;5018598;28;20042;-76
2021/04/19 07:47:38;;;;;;;41.40;25.02;;;;;;;13.22;57.62;97390.72;5066978;28;20177;-77
2021/04/19 07:50:11;;;;;;;31.83;20.83;;;;;;;13.61;57.04;97390.34;5110737;28;20912;-77
2021/04/19 07:52:56;;;;;;;31.23;19.27;;;;;;;13.88;56.06;97386.75;5130496;28;20657;-76
2021/04/19 07:55:25;;;;;;;56.72;30.35;;;;;;;14.05;56.33;97384.66;5094906;28;20114;-77
2021/04/19 07:57:50;;;;;;;28.65;18.83;;;;;;;13.85;55.90;97392.50;5083959;28;20452;-77
2021/04/19 08:00:26;;;;;;;38.33;27.05;;;;;;;13.45;56.99;97400.00;5112082;28;20042;-77
2021/04/19 08:03:00;;;;;;;29.27;18.10;;;;;;;13.62;56.14;97402.41;5101248;28;20111;-77
2021/04/19 08:05:37;;;;;;;31.50;19.48;;;;;;;13.59;57.08;97402.91;5094384;28;20034;-77
2021/04/19 08:08:04;;;;;;;29.42;21.08;;;;;;;13.43;56.94;97407.28;5090008;28;20371;-77
2021/04/19 08:10:29;;;;;;;27.75;19.50;;;;;;;13.73;57.18;97391.94;5086600;28;20114;-77
2021/04/19 08:13:08;;;;;;;28.92;18.98;;;;;;;13.33;57.85;97403.84;5099182;28;20221;-77
2021/04/19 08:15:35;;;;;;;28.08;17.77;;;;;;;14.11;56.31;97397.75;5120013;28;20039;-77
2021/04/19 08:18:12;;;;;;;29.60;19.27;;;;;;;13.73;56.69;97389.34;5068779;28;20122;-77
2021/04/19 08:20:38;;;;;;;23.10;15.65;;;;;;;14.19;54.94;97387.53;5083921;27;20055;-77
2021/04/19 08:23:05;;;;;;;19.48;13.02;;;;;;;14.32;54.97;97395.91;5103891;28;20074;-76
2021/04/19 08:25:38;;;;;;;17.33;12.38;;;;;;;14.06;53.50;97393.28;5110275;28;20082;-77
2021/04/19 08:28:13;;;;;;;18.02;12.93;;;;;;;14.15;52.91;97393.56;5111816;28;20042;-77
2021/04/19 08:30:42;;;;;;;19.85;12.93;;;;;;;14.32;52.29;97394.06;5103190;27;20031;-77
2021/04/19 08:33:10;;;;;;;20.25;14.75;;;;;;;14.18;54.10;97401.66;5098167;27;20106;-77
2021/04/19 08:35:37;;;;;;;24.67;19.08;;;;;;;13.85;54.90;97400.34;5112086;27;20389;-77
2021/04/19 08:38:06;;;;;;;21.38;14.82;;;;;;;13.78;55.42;97402.44;5081392;27;20023;-77
2021/04/19 08:40:34;;;;;;;20.50;14.25;;;;;;;13.70;55.84;97398.47;5090821;27;20071;-77
2021/04/19 08:43:00;;;;;;;24.17;18.27;;;;;;;13.79;55.70;97396.13;5083147;27;20042;-77
2021/04/19 08:45:26;;;;;;;22.33;15.48;;;;;;;13.68;56.73;97408.41;5114860;27;20031;-77
2021/04/19 08:47:52;;;;;;;20.50;13.70;;;;;;;13.67;56.41;97409.44;5113622;27;20076;-77
2021/04/19 08:50:22;;;;;;;21.65;14.38;;;;;;;13.66;55.94;97408.69;5088471;27;20038;-77
2021/04/19 08:52:50;;;;;;;19.15;13.93;;;;;;;13.53;55.81;97408.38;5102569;27;20548;-77
2021/04/19 08:55:18;;;;;;;21.60;13.85;;;;;;;13.68;56.50;97414.44;5097464;27;20039;-76
2021/04/19 08:57:48;;;;;;;20.48;14.38;;;;;;;13.61;55.84;97408.66;5087270;27;20035;-77
2021/04/19 09:00:22;;;;;;;18.00;12.00;;;;;;;13.11;56.06;97415.25;5069439;27;20073;-77
2021/04/19 09:02:48;;;;;;;16.83;11.80;;;;;;;13.43;56.47;97417.75;5095877;27;20114;-77
2021/04/19 09:05:17;;;;;;;20.92;12.35;;;;;;;13.36;56.48;97409.34;5114483;27;20027;-77
2021/04/19 09:07:48;;;;;;;15.68;11.93;;;;;;;13.26;55.98;97409.28;5090415;27;20030;-77
2021/04/19 09:10:17;;;;;;;17.73;11.50;;;;;;;13.27;56.35;97411.66;5095575;27;20629;-77
2021/04/19 09:12:44;;;;;;;18.33;11.60;;;;;;;13.37;56.60;97410.94;5097829;27;20093;-77
2021/04/19 09:15:18;;;;;;;17.77;11.80;;;;;;;13.20;56.48;97421.56;5112746;27;20041;-77
2021/04/19 09:18:01;;;;;;;16.00;11.40;;;;;;;12.98;57.22;97410.47;5085729;28;20040;-77
2021/04/19 09:20:46;;;;;;;14.95;11.27;;;;;;;13.23;57.22;97410.59;5128187;27;20042;-77
2021/04/19 09:23:16;;;;;;;13.95;9.38;;;;;;;13.04;56.17;97412.88;5091472;28;20017;-77
2021/04/19 09:25:42;;;;;;;15.48;10.30;;;;;;;13.25;55.94;97412.97;5119981;27;20049;-77
2021/04/19 09:28:09;;;;;;;15.90;10.00;;;;;;;13.15;56.17;97413.69;5097337;27;20062;-77
2021/04/19 09:30:37;;;;;;;14.70;10.95;;;;;;;13.00;56.90;97417.00;5111036;28;20032;-77
2021/04/19 09:33:06;;;;;;;17.23;10.60;;;;;;;13.23;56.25;97413.22;5100101;28;20031;-76
2021/04/19 09:35:44;;;;;;;16.27;10.52;;;;;;;12.99;57.26;97410.22;5091870;28;20028;-76
2021/04/19 09:38:16;;;;;;;16.13;11.38;;;;;;;13.26;56.92;97415.31;5083720;27;20028;-77
2021/04/19 09:40:49;;;;;;;16.02;10.93;;;;;;;13.05;57.49;97411.03;5109544;27;20039;-77
2021/04/19 09:43:38;;;;;;;17.15;11.43;;;;;;;13.01;58.00;97421.22;5093592;27;20583;-77
2021/04/19 09:46:04;;;;;;;18.42;11.57;;;;;;;13.47;57.85;97418.06;5102689;28;20023;-76
2021/04/19 09:48:38;;;;;;;17.02;11.32;;;;;;;13.51;58.20;97413.09;5126343;27;20138;-77
2021/04/19 09:51:16;;;;;;;17.30;11.70;;;;;;;13.45;57.54;97405.22;5092532;28;20067;-77
2021/04/19 09:54:05;;;;;;;15.15;10.80;;;;;;;13.46;57.24;97409.41;5064315;27;20032;-76
2021/04/19 09:56:42;;;;;;;15.50;11.02;;;;;;;13.60;57.12;97411.53;5088949;27;20470;-77
2021/04/19 09:59:19;;;;;;;14.25;10.85;;;;;;;13.79;56.58;97401.38;5111230;27;20038;-76
2021/04/19 10:01:51;;;;;;;14.57;10.10;;;;;;;13.96;55.65;97409.00;5076712;28;20038;-77
2021/04/19 10:04:19;;;;;;;14.05;10.35;;;;;;;14.04;55.99;97411.88;5090866;28;20035;-77
2021/04/19 10:06:50;;;;;;;16.40;11.30;;;;;;;13.80;55.63;97403.72;5057528;28;20467;-77
2021/04/19 10:09:18;;;;;;;13.60;9.45;;;;;;;13.88;55.54;97412.09;5089138;27;20088;-77
2021/04/19 10:11:48;;;;;;;15.27;9.95;;;;;;;13.56;55.19;97415.72;5095776;27;20031;-77
2021/04/19 10:14:18;;;;;;;19.65;13.00;;;;;;;13.65;55.19;97422.78;5111143;27;20086;-77
2021/04/19 10:16:45;;;;;;;38.10;23.27;;;;;;;13.60;55.90;97416.75;5070984;27;20030;-77
2021/04/19 10:19:12;;;;;;;15.63;10.43;;;;;;;13.73;55.77;97415.50;5110601;27;20035;-76
2021/04/19 10:21:39;;;;;;;16.25;10.40;;;;;;;13.73;55.79;97420.75;5081191;27;20023;-77
2021/04/19 10:24:14;;;;;;;86.60;42.53;;;;;;;13.38;56.53;97415.13;5063381;27;20028;-76
2021/04/19 10:26:39;;;;;;;42.80;23.85;;;;;;;13.42;56.71;97403.13;5113160;27;20023;-77
2021/04/19 10:29:16;;;;;;;129.30;71.50;;;;;;;13.24;57.23;97417.38;5079885;27;20038;-77
2021/04/19 10:32:02;;;;;;;165.18;81.68;;;;;;;13.11;57.23;97420.50;5092863;27;20023;-76
2021/04/19 10:34:30;;;;;;;50.15;31.33;;;;;;;13.34;57.04;97410.66;5078111;27;20036;-77
2021/04/19 10:36:59;;;;;;;29.40;19.27;;;;;;;13.47;56.76;97408.38;5080175;28;20066;-77
2021/04/19 10:39:27;;;;;;;18.52;14.65;;;;;;;13.44;56.85;97418.56;5077181;27;20106;-77
2021/04/19 10:41:57;;;;;;;14.30;11.07;;;;;;;13.39;57.24;97416.69;5126490;27;20518;-77
2021/04/19 10:44:40;;;;;;;14.48;10.63;;;;;;;13.23;57.02;97418.44;5092779;28;20110;-77
2021/04/19 10:47:08;;;;;;;15.65;11.35;;;;;;;13.50;56.81;97417.50;5087560;27;20539;-77
2021/04/19 10:49:34;;;;;;;13.65;9.45;;;;;;;13.56;56.80;97419.13;5103733;27;20035;-77
2021/04/19 10:52:05;;;;;;;15.27;11.10;;;;;;;13.50;55.61;97420.13;5100957;27;20027;-77
2021/04/19 10:54:38;;;;;;;15.60;11.57;;;;;;;13.44;56.59;97414.09;5096018;27;20025;-76
2021/04/19 10:57:05;;;;;;;16.42;11.02;;;;;;;13.56;57.01;97416.50;5122626;27;20027;-77
2021/04/19 10:59:31;;;;;;;15.40;10.70;;;;;;;13.60;56.72;97412.31;5086289;27;20023;-77
2021/04/19 11:01:59;;;;;;;15.27;11.13;;;;;;;13.56;56.22;97411.25;5070270;27;20521;-77
2021/04/19 11:04:24;;;;;;;15.32;10.82;;;;;;;13.53;57.68;97408.38;5086232;27;20023;-77
2021/04/19 11:06:50;;;;;;;16.70;11.65;;;;;;;13.59;56.76;97416.00;5070004;27;20057;-77
2021/04/19 11:09:19;;;;;;;12.43;9.10;;;;;;;13.51;56.95;97411.25;5083669;27;20538;-76
2021/04/19 11:11:47;;;;;;;14.52;9.60;;;;;;;13.47;56.94;97403.13;5100691;27;20031;-77
2021/04/19 11:14:28;;;;;;;12.90;8.65;;;;;;;13.38;57.22;97409.88;5104645;27;20221;-77
2021/04/19 11:16:59;;;;;;;13.05;9.80;;;;;;;13.42;56.73;97404.94;5095292;27;20032;-77
2021/04/19 11:19:27;;;;;;;14.35;9.30;;;;;;;13.36;56.72;97408.59;5130911;27;20470;-76
2021/04/19 11:21:53;;;;;;;12.85;8.43;;;;;;;13.46;56.63;97404.16;5112215;27;20027;-77
2021/04/19 11:24:18;;;;;;;13.32;9.32;;;;;;;13.46;56.40;97400.78;5088953;27;20078;-77
2021/04/19 11:26:43;;;;;;;14.43;9.73;;;;;;;13.53;56.47;97397.91;5091699;27;20088;-77
2021/04/19 11:29:09;;;;;;;14.95;10.27;;;;;;;13.50;56.39;97399.19;5112641;28;20035;-77